Time;durP1;ratioP1;P1;durP2;ratioP2;P2;SDS_P1;SDS_P2;PMS_P1;PMS_P2;Temp;Humidity;BMP_temperature;BMP_pressure;BME280_temperature;BME280_humidity;BME280_pressure;Samples;Min_cycle;Max_cycle;Signal;HPM_P1;HPM_P2
2021/09/01 00:02:13;;;;;;;6.10;5.60;;;;;;;23.13;46.56;99243.75;5041634;28;20214;-52
2021/09/01 00:04:40;;;;;;;6.30;5.70;;;;;;;23.16;46.45;99239.91;5041021;28;20595;-53
2021/09/01 00:07:06;;;;;;;6.13;5.63;;;;;;;23.16;46.56;99239.91;5041187;28;20256;-52
2021/09/01 00:09:33;;;;;;;5.97;5.47;;;;;;;23.18;46.43;99235.28;5041365;28;20194;-53
2021/09/01 00:12:00;;;;;;;5.60;5.10;;;;;;;23.23;46.11;99239.03;5041825;28;20190;-51
2021/09/01 00:14:26;;;;;;;6.30;5.80;;;;;;;23.27;46.03;99231.59;5041873;28;20186;-52
2021/09/01 00:16:53;;;;;;;5.83;5.33;;;;;;;23.20;46.38;99231.41;5042295;28;20190;-51
2021/09/01 00:19:19;;;;;;;5.87;5.37;;;;;;;23.11;46.57;99238.59;5041503;28;20210;-52
2021/09/01 00:21:46;;;;;;;5.77;5.27;;;;;;;23.16;46.40;99240.75;5042052;28;20190;-52
2021/09/01 00:24:12;;;;;;;5.90;5.40;;;;;;;23.16;46.37;99235.44;5041848;28;20202;-52
2021/09/01 00:26:39;;;;;;;6.50;5.90;;;;;;;23.16;46.33;99239.91;5040880;28;20191;-52
2021/09/01 00:29:05;;;;;;;6.17;5.57;;;;;;;23.14;46.38;99241.91;5040283;28;20217;-52
2021/09/01 00:31:32;;;;;;;6.07;5.57;;;;;;;23.14;46.51;99241.91;5041413;28;20224;-54
2021/09/01 00:33:58;;;;;;;5.90;5.40;;;;;;;23.16;46.27;99240.75;5040479;28;20700;-52
2021/09/01 00:36:25;;;;;;;6.63;5.93;;;;;;;23.16;46.13;99246.09;5040037;28;20186;-53
2021/09/01 00:38:52;;;;;;;6.30;5.70;;;;;;;23.17;46.11;99242.41;5040570;28;20214;-52
2021/09/01 00:41:20;;;;;;;6.33;5.80;;;;;;;23.16;46.33;99243.41;5041289;28;20652;-52
2021/09/01 00:43:52;;;;;;;6.40;5.80;;;;;;;23.15;46.32;99252.41;5041000;28;20216;-52
2021/09/01 00:46:19;;;;;;;5.60;5.10;;;;;;;23.17;46.30;99253.06;5040745;28;20182;-54
2021/09/01 00:48:46;;;;;;;6.03;5.53;;;;;;;23.16;46.30;99239.91;5041555;28;20189;-54
2021/09/01 00:51:15;;;;;;;6.00;5.50;;;;;;;23.15;46.33;99241.75;5041161;28;20198;-54
2021/09/01 00:53:44;;;;;;;5.70;5.20;;;;;;;23.17;46.18;99247.75;5040626;28;20206;-52
2021/09/01 00:56:16;;;;;;;5.80;5.30;;;;;;;23.13;46.27;99250.91;5040670;28;20194;-54
2021/09/01 00:58:47;;;;;;;5.70;5.23;;;;;;;23.08;46.41;99244.28;5039857;28;20268;-53
2021/09/01 01:01:16;;;;;;;5.23;4.83;;;;;;;23.06;46.36;99245.44;5039945;28;20544;-54
2021/09/01 01:03:50;;;;;;;5.93;5.43;;;;;;;23.12;46.17;99247.44;5039940;28;20780;-54
2021/09/01 01:06:25;;;;;;;6.13;5.63;;;;;;;23.14;46.21;99257.91;5040292;28;20633;-53
2021/09/01 01:08:53;;;;;;;5.87;5.37;;;;;;;23.14;46.36;99248.09;5040042;28;20192;-52
2021/09/01 01:11:19;;;;;;;5.73;5.27;;;;;;;23.13;46.09;99254.41;5039842;28;20244;-52
2021/09/01 01:13:47;;;;;;;5.93;5.43;;;;;;;23.15;46.22;99254.22;5039182;28;20236;-54
2021/09/01 01:16:15;;;;;;;6.03;5.53;;;;;;;23.13;46.21;99254.41;5039028;28;20540;-52
2021/09/01 01:18:45;;;;;;;6.07;5.57;;;;;;;23.14;46.21;99252.56;5039065;28;20246;-53
2021/09/01 01:21:16;;;;;;;5.20;4.80;;;;;;;23.15;46.07;99249.75;5039286;28;20182;-52
2021/09/01 01:23:43;;;;;;;6.03;5.53;;;;;;;23.17;46.09;99247.75;5040583;28;20213;-52
2021/09/01 01:26:10;;;;;;;5.90;5.30;;;;;;;23.18;46.16;99241.41;5040309;28;20198;-52
2021/09/01 01:28:36;;;;;;;6.30;5.80;;;;;;;23.18;45.96;99238.75;5040408;28;20186;-54
2021/09/01 01:31:03;;;;;;;6.00;5.50;;;;;;;23.16;46.05;99240.75;5040683;28;20196;-52
2021/09/01 01:33:30;;;;;;;5.93;5.43;;;;;;;23.18;45.89;99243.25;5038612;28;20213;-54
2021/09/01 01:35:56;;;;;;;6.27;5.70;;;;;;;23.21;46.07;99237.59;5040183;28;20182;-52
2021/09/01 01:39:17;;;;;;;5.50;5.00;;;;;;;23.21;46.03;99234.91;5039694;28;20264;-54
2021/09/01 01:41:43;;;;;;;5.67;5.17;;;;;;;23.20;46.00;99244.72;5039394;28;20190;-52
2021/09/01 01:44:09;;;;;;;5.50;5.00;;;;;;;23.18;46.01;99241.41;5039842;28;20701;-52
2021/09/01 01:46:36;;;;;;;6.23;5.70;;;;;;;23.18;45.89;99240.59;5039817;28;20190;-54
2021/09/01 01:49:02;;;;;;;5.93;5.43;;;;;;;23.21;45.83;99243.72;5039422;28;20198;-52
2021/09/01 01:51:29;;;;;;;5.67;5.23;;;;;;;23.23;45.82;99249.69;5040021;28;20190;-52
2021/09/01 01:53:55;;;;;;;6.13;5.63;;;;;;;23.26;45.89;99256.56;5039860;28;20218;-54
2021/09/01 01:56:22;;;;;;;5.80;5.30;;;;;;;23.27;45.66;99258.22;5039724;28;20222;-53
2021/09/01 01:58:48;;;;;;;5.90;5.40;;;;;;;23.24;45.70;99256.72;5039564;28;20673;-52
2021/09/01 02:01:14;;;;;;;5.40;5.00;;;;;;;23.24;45.70;99256.72;5039846;28;20248;-51
2021/09/01 02:03:41;;;;;;;5.67;5.17;;;;;;;23.25;45.75;99255.72;5038920;28;20210;-52
2021/09/01 02:06:08;;;;;;;5.70;5.20;;;;;;;23.29;45.63;99260.72;5038720;28;20186;-52
2021/09/01 02:08:34;;;;;;;5.97;5.47;;;;;;;23.24;45.76;99256.72;5039500;28;20195;-52
2021/09/01 02:11:00;;;;;;;5.50;5.03;;;;;;;23.24;45.74;99256.72;5039460;28;20630;-52
2021/09/01 02:13:27;;;;;;;6.00;5.50;;;;;;;23.28;45.71;99264.38;5039337;28;20241;-52
2021/09/01 02:15:53;;;;;;;6.17;5.60;;;;;;;23.25;45.68;99253.03;5039127;28;20209;-52
2021/09/01 02:18:20;;;;;;;5.67;5.17;;;;;;;23.27;45.80;99257.41;5039167;28;20249;-52
2021/09/01 02:20:46;;;;;;;5.73;5.23;;;;;;;23.20;45.80;99258.03;5039186;28;20767;-52
2021/09/01 02:23:13;;;;;;;5.73;5.27;;;;;;;23.19;45.69;99261.69;5038844;28;20328;-52
2021/09/01 02:25:39;;;;;;;5.63;5.17;;;;;;;23.17;45.94;99269.03;5038939;28;20668;-53
2021/09/01 02:28:05;;;;;;;5.80;5.30;;;;;;;23.19;45.76;99261.69;5038863;28;20224;-52
2021/09/01 02:30:32;;;;;;;6.50;6.00;;;;;;;23.10;45.94;99260.09;5039559;28;20220;-52
2021/09/01 02:32:59;;;;;;;6.03;5.53;;;;;;;23.10;45.99;99263.56;5038816;28;20213;-52
2021/09/01 02:35:25;;;;;;;6.30;5.70;;;;;;;23.06;46.11;99272.06;5038964;28;20190;-52
2021/09/01 02:37:52;;;;;;;6.07;5.57;;;;;;;23.06;46.17;99275.56;5038586;28;20665;-53
2021/09/01 02:40:22;;;;;;;5.90;5.40;;;;;;;23.15;45.89;99276.38;5038774;28;20259;-53
2021/09/01 02:42:49;;;;;;;5.70;5.20;;;;;;;23.14;45.84;99277.38;5038497;28;20234;-52
2021/09/01 02:45:17;;;;;;;6.03;5.53;;;;;;;23.10;46.12;99276.06;5038675;28;20218;-54
2021/09/01 02:47:45;;;;;;;6.10;5.60;;;;;;;23.11;45.94;99280.38;5038397;28;20788;-54
2021/09/01 02:50:12;;;;;;;6.10;5.60;;;;;;;23.11;45.79;99281.19;5037910;28;20182;-52
2021/09/01 02:52:39;;;;;;;5.87;5.37;;;;;;;23.14;45.93;99284.53;5037842;28;20213;-52
2021/09/01 02:55:06;;;;;;;5.47;5.00;;;;;;;23.11;46.11;99283.03;5037425;28;20190;-54
2021/09/01 02:57:32;;;;;;;5.50;5.10;;;;;;;23.07;46.10;99279.88;5037476;28;20221;-52
2021/09/01 02:59:59;;;;;;;5.90;5.33;;;;;;;23.06;46.00;99278.22;5037373;28;20252;-49
2021/09/01 03:02:25;;;;;;;5.47;5.07;;;;;;;23.07;46.02;99284.38;5037954;28;20237;-54
2021/09/01 03:04:52;;;;;;;5.37;4.97;;;;;;;23.08;45.89;99275.41;5037518;28;20214;-54
2021/09/01 03:07:18;;;;;;;5.90;5.40;;;;;;;22.98;46.35;99275.56;5036965;28;20197;-54
2021/09/01 03:09:45;;;;;;;5.70;5.27;;;;;;;22.96;46.29;99278.44;5037088;28;20657;-52
2021/09/01 03:12:11;;;;;;;5.80;5.30;;;;;;;22.94;46.25;99277.78;5037738;28;20222;-52
2021/09/01 03:14:38;;;;;;;5.53;5.13;;;;;;;22.96;46.19;99277.56;5036879;28;20193;-53
2021/09/01 03:17:04;;;;;;;5.90;5.40;;;;;;;22.96;46.26;99277.56;5037364;28;20260;-54
2021/09/01 03:19:31;;;;;;;6.00;5.50;;;;;;;22.96;46.05;99278.44;5038447;28;20248;-54
2021/09/01 03:21:57;;;;;;;5.87;5.37;;;;;;;22.91;46.31;99267.44;5041436;28;20194;-53
2021/09/01 03:24:23;;;;;;;5.50;5.10;;;;;;;22.90;46.31;99276.44;5041224;28;20189;-54
2021/09/01 03:26:50;;;;;;;5.27;4.87;;;;;;;22.90;46.43;99272.94;5041122;28;20190;-54
2021/09/01 03:29:16;;;;;;;5.73;5.23;;;;;;;22.89;46.44;99285.41;5041017;28;20185;-54
2021/09/01 03:31:43;;;;;;;5.97;5.43;;;;;;;22.85;46.36;99281.44;5041024;28;20193;-54
2021/09/01 03:34:10;;;;;;;5.60;5.20;;;;;;;22.91;46.12;99277.28;5039913;28;20259;-54
2021/09/01 03:36:36;;;;;;;6.00;5.50;;;;;;;22.92;46.32;99282.44;5041418;28;20201;-54
2021/09/01 03:39:02;;;;;;;5.80;5.30;;;;;;;22.92;46.39;99278.94;5041390;28;20237;-52
2021/09/01 03:41:29;;;;;;;5.67;5.20;;;;;;;22.91;46.38;99286.06;5041137;28;20567;-52
2021/09/01 03:43:55;;;;;;;5.23;4.83;;;;;;;22.89;46.22;99282.75;5040783;28;20716;-53
2021/09/01 03:46:22;;;;;;;5.93;5.40;;;;;;;22.89;46.33;99288.06;5040398;28;20194;-52
2021/09/01 03:48:48;;;;;;;5.43;5.03;;;;;;;22.87;46.32;99299.91;5040663;28;20197;-54
2021/09/01 03:51:15;;;;;;;5.83;5.33;;;;;;;22.92;46.08;99290.41;5040486;28;20635;-53
2021/09/01 03:53:41;;;;;;;5.67;5.20;;;;;;;22.88;46.26;99291.72;5040630;28;20588;-54
2021/09/01 03:56:09;;;;;;;5.37;4.97;;;;;;;22.86;46.42;99299.06;5040203;28;20218;-53
2021/09/01 03:58:36;;;;;;;5.77;5.27;;;;;;;22.88;46.29;99289.06;5040250;28;20210;-53
2021/09/01 04:01:03;;;;;;;5.67;5.17;;;;;;;22.87;46.23;99297.25;5038975;28;20202;-54
2021/09/01 04:03:29;;;;;;;5.67;5.17;;;;;;;22.86;46.35;99292.91;5040461;28;20268;-54
2021/09/01 04:05:56;;;;;;;5.70;5.20;;;;;;;22.85;46.17;99291.25;5039871;28;20203;-54
2021/09/01 04:08:22;;;;;;;5.67;5.17;;;;;;;22.86;46.17;99288.41;5039520;28;20186;-54
2021/09/01 04:10:49;;;;;;;5.50;5.00;;;;;;;22.87;46.22;99295.41;5039847;28;20186;-54
2021/09/01 04:13:15;;;;;;;5.67;5.17;;;;;;;22.86;46.41;99299.06;5039542;28;20213;-53
2021/09/01 04:15:42;;;;;;;5.70;5.20;;;;;;;22.87;46.44;99303.38;5039722;28;20657;-52
2021/09/01 04:18:08;;;;;;;5.47;5.07;;;;;;;22.89;46.29;99303.22;5040024;28;20253;-54
2021/09/01 04:20:35;;;;;;;5.67;5.23;;;;;;;22.89;46.19;99304.03;5039993;28;20221;-54
2021/09/01 04:23:02;;;;;;;5.63;5.20;;;;;;;22.89;46.15;99314.69;5039491;28;20222;-54
2021/09/01 04:25:28;;;;;;;6.30;5.70;;;;;;;22.89;46.21;99313.88;5039720;28;20195;-54
2021/09/01 04:27:55;;;;;;;5.60;5.10;;;;;;;22.86;46.12;99315.03;5040306;28;20194;-54
2021/09/01 04:30:22;;;;;;;5.80;5.30;;;;;;;22.87;46.10;99311.38;5039000;28;20209;-53
2021/09/01 04:32:48;;;;;;;6.20;5.60;;;;;;;22.85;46.18;99308.03;5040163;28;20214;-54
2021/09/01 04:35:15;;;;;;;5.57;5.07;;;;;;;22.86;46.33;99314.22;5040103;28;20201;-54
2021/09/01 04:37:41;;;;;;;5.20;4.70;;;;;;;22.83;46.38;99316.19;5040157;28;20243;-53
2021/09/01 04:40:09;;;;;;;6.00;5.50;;;;;;;22.85;46.36;99312.56;5040162;28;20214;-53
2021/09/01 04:42:35;;;;;;;5.60;5.20;;;;;;;22.86;46.25;99320.34;5039672;28;20214;-54
2021/09/01 04:45:02;;;;;;;5.50;5.00;;;;;;;22.86;46.29;99315.03;5040199;28;20558;-54
2021/09/01 04:47:29;;;;;;;5.10;4.70;;;;;;;22.88;46.12;99315.69;5039815;28;20558;-54
2021/09/01 04:49:56;;;;;;;6.10;5.60;;;;;;;22.92;45.94;99313.53;5039775;28;20205;-51
2021/09/01 04:52:22;;;;;;;5.73;5.30;;;;;;;22.91;45.98;99315.34;5039697;28;20256;-52
2021/09/01 04:54:49;;;;;;;5.33;4.87;;;;;;;22.90;45.96;99305.69;5039486;28;20186;-52
2021/09/01 04:57:15;;;;;;;5.27;4.87;;;;;;;22.90;46.21;99304.88;5039786;28;20263;-52
2021/09/01 04:59:42;;;;;;;5.40;4.90;;;;;;;22.89;46.11;99304.03;5038999;28;20695;-53
2021/09/01 05:02:08;;;;;;;5.43;5.03;;;;;;;22.94;45.87;99312.38;5039663;28;20213;-54
2021/09/01 05:04:36;;;;;;;5.70;5.23;;;;;;;22.95;45.95;99303.38;5039875;28;20198;-54
2021/09/01 05:07:02;;;;;;;5.70;5.20;;;;;;;22.91;45.96;99311.88;5039065;28;20261;-54
2021/09/01 05:09:29;;;;;;;5.33;4.83;;;;;;;22.89;46.03;99308.56;5039590;28;20198;-54
2021/09/01 05:11:56;;;;;;;5.30;4.83;;;;;;;22.89;45.93;99308.56;5039635;28;20194;-52
2021/09/01 05:14:22;;;;;;;5.80;5.30;;;;;;;22.85;46.05;99313.38;5039050;28;20268;-54
2021/09/01 05:16:49;;;;;;;5.37;4.97;;;;;;;22.88;46.14;99310.38;5039653;28;20186;-54
2021/09/01 05:19:15;;;;;;;5.37;4.97;;;;;;;22.88;46.31;99313.03;5038931;28;20692;-54
2021/09/01 05:21:49;;;;;;;5.30;4.90;;;;;;;22.82;46.23;99306.53;5039105;28;20248;-54
2021/09/01 05:24:27;;;;;;;5.30;4.90;;;;;;;22.82;46.27;99314.53;5039676;28;20183;-54
2021/09/01 05:26:59;;;;;;;5.60;5.13;;;;;;;22.82;46.17;99316.38;5039168;28;20182;-54
2021/09/01 05:29:28;;;;;;;5.80;5.30;;;;;;;22.83;45.96;99315.38;5039391;28;20174;-54
2021/09/01 05:31:57;;;;;;;6.07;5.57;;;;;;;22.80;46.20;99316.53;5037918;28;20186;-53
2021/09/01 05:34:25;;;;;;;5.50;5.10;;;;;;;22.81;46.12;99317.38;5039591;28;20688;-52
2021/09/01 05:36:52;;;;;;;5.30;4.90;;;;;;;22.78;46.08;99315.06;5037268;28;20194;-53
2021/09/01 05:39:19;;;;;;;5.20;4.80;;;;;;;22.79;46.32;99319.38;5038817;28;20252;-55
2021/09/01 05:41:46;;;;;;;5.33;4.93;;;;;;;22.77;46.27;99326.69;5037880;28;20547;-53
2021/09/01 05:44:13;;;;;;;5.30;4.90;;;;;;;22.77;46.32;99327.50;5038327;28;20197;-52
2021/09/01 05:46:41;;;;;;;6.10;5.60;;;;;;;22.83;46.14;99326.00;5037451;28;20653;-53
2021/09/01 05:49:10;;;;;;;5.80;5.33;;;;;;;22.86;46.03;99332.84;5037465;28;20190;-54
2021/09/01 05:51:37;;;;;;;5.43;4.93;;;;;;;22.85;45.88;99332.00;5036940;28;20600;-54
2021/09/01 05:54:03;;;;;;;5.07;4.67;;;;;;;22.83;46.29;99336.66;5038425;28;20267;-52
2021/09/01 05:56:34;;;;;;;5.20;4.80;;;;;;;22.82;46.35;99341.13;5045064;28;20213;-53
2021/09/01 05:59:08;;;;;;;5.23;4.83;;;;;;;22.84;46.16;99338.31;5041364;28;20324;-55
2021/09/01 06:01:41;;;;;;;5.40;5.00;;;;;;;22.87;46.17;99332.66;5041584;28;20190;-53
2021/09/01 06:04:09;;;;;;;5.03;4.63;;;;;;;22.91;45.84;99333.16;5036535;28;20210;-52
2021/09/01 06:06:38;;;;;;;4.60;4.27;;;;;;;22.93;46.14;99332.00;5036246;28;20260;-53
2021/09/01 06:09:06;;;;;;;5.50;5.10;;;;;;;22.95;45.94;99330.00;5033420;28;20558;-53
2021/09/01 06:11:35;;;;;;;5.67;5.17;;;;;;;22.95;46.06;99330.00;5032015;28;20194;-53
2021/09/01 06:14:01;;;;;;;5.73;5.23;;;;;;;22.96;46.08;99336.13;5051341;28;20584;-54
2021/09/01 06:16:28;;;;;;;6.13;5.53;;;;;;;22.98;45.86;99336.78;5048740;28;20205;-53
2021/09/01 06:18:54;;;;;;;6.10;5.60;;;;;;;22.99;46.03;99342.97;5043428;28;20217;-54
2021/09/01 06:21:22;;;;;;;6.20;5.70;;;;;;;23.04;45.95;99338.81;5050318;28;20747;-51
2021/09/01 06:23:48;;;;;;;6.50;5.53;;;;;;;23.08;45.92;99349.94;5052523;28;20221;-51
2021/09/01 06:26:15;;;;;;;5.63;5.20;;;;;;;23.11;45.62;99345.09;5052410;28;20635;-52
2021/09/01 06:28:44;;;;;;;6.07;5.57;;;;;;;23.18;45.69;99350.56;5039179;28;20214;-53
2021/09/01 06:31:10;;;;;;;5.43;5.03;;;;;;;23.16;45.88;99352.56;5038625;28;20263;-53
2021/09/01 06:33:37;;;;;;;5.77;5.27;;;;;;;23.16;45.94;99357.91;5041159;28;20727;-52
2021/09/01 06:36:03;;;;;;;5.80;5.30;;;;;;;23.17;45.96;99356.91;5042387;28;20198;-52
2021/09/01 06:38:30;;;;;;;7.00;5.03;;;;;;;23.19;46.10;99357.56;5041410;28;20186;-53
2021/09/01 06:40:56;;;;;;;7.90;5.60;;;;;;;23.22;45.92;99357.22;5040328;28;20217;-54
2021/09/01 06:43:23;;;;;;;8.13;5.87;;;;;;;23.27;46.06;99350.59;5040079;28;20214;-54
2021/09/01 06:45:50;;;;;;;8.43;5.47;;;;;;;23.29;46.11;99346.75;5041001;28;20266;-53
2021/09/01 06:48:17;;;;;;;7.13;5.93;;;;;;;23.31;46.04;99349.25;5041297;28;20220;-52
2021/09/01 06:50:44;;;;;;;7.17;5.93;;;;;;;23.36;45.84;99354.88;5039240;28;20190;-55
2021/09/01 06:53:12;;;;;;;6.27;5.37;;;;;;;23.33;45.94;99347.25;5039455;28;20218;-55
2021/09/01 06:55:39;;;;;;;6.40;5.83;;;;;;;23.39;45.89;99346.53;5039357;28;20200;-54
2021/09/01 06:58:17;;;;;;;6.10;5.50;;;;;;;23.36;45.97;99352.22;5038472;28;20586;-52
2021/09/01 07:00:44;;;;;;;6.77;6.10;;;;;;;23.36;45.87;99350.41;5040940;28;20198;-53
2021/09/01 07:03:11;;;;;;;5.50;5.00;;;;;;;23.42;45.66;99343.56;5039414;28;20210;-53
2021/09/01 07:05:38;;;;;;;5.83;5.33;;;;;;;23.48;45.54;99355.34;5040583;28;20204;-54
2021/09/01 07:08:16;;;;;;;5.93;5.43;;;;;;;23.51;45.34;99358.50;5039828;28;20221;-54
2021/09/01 07:10:44;;;;;;;6.10;5.43;;;;;;;23.62;45.32;99357.28;5039753;28;20185;-52
2021/09/01 07:13:12;;;;;;;5.70;5.20;;;;;;;23.66;45.20;99357.78;5039943;28;20232;-52
2021/09/01 07:15:39;;;;;;;5.60;5.10;;;;;;;23.66;45.08;99363.09;5039220;28;20186;-52
2021/09/01 07:18:06;;;;;;;5.80;5.17;;;;;;;23.65;45.32;99361.44;5039179;28;20186;-53
2021/09/01 07:20:32;;;;;;;5.67;5.27;;;;;;;23.62;45.31;99369.78;5039791;28;20216;-53
2021/09/01 07:22:59;;;;;;;6.70;6.10;;;;;;;23.61;45.52;99368.13;5038659;28;20260;-53
2021/09/01 07:25:26;;;;;;;6.53;5.47;;;;;;;23.61;45.20;99368.94;5037829;28;20190;-54
2021/09/01 07:27:53;;;;;;;6.10;5.60;;;;;;;23.65;45.38;99372.09;5037917;28;20212;-52
2021/09/01 07:30:19;;;;;;;5.67;5.17;;;;;;;23.64;45.26;99371.28;5037987;28;20186;-53
2021/09/01 07:32:46;;;;;;;6.30;5.70;;;;;;;23.59;45.51;99373.63;5036623;28;20256;-53
2021/09/01 07:35:12;;;;;;;5.80;5.30;;;;;;;23.57;45.57;99377.47;5038500;28;20189;-52
2021/09/01 07:37:47;;;;;;;6.13;5.57;;;;;;;23.57;45.70;99386.28;5036568;28;20562;-52
2021/09/01 07:40:15;;;;;;;5.20;4.80;;;;;;;23.60;45.63;99385.13;5042335;28;20201;-54
2021/09/01 07:42:45;;;;;;;6.00;5.50;;;;;;;23.61;45.69;99381.47;5038153;28;20632;-51
2021/09/01 07:45:13;;;;;;;6.30;5.70;;;;;;;23.60;45.60;99383.28;5037023;28;20236;-56
2021/09/01 07:47:51;;;;;;;6.03;5.53;;;;;;;23.47;45.96;99386.50;5037843;28;20190;-59
2021/09/01 07:50:20;;;;;;;6.47;5.33;;;;;;;23.47;46.11;99391.81;5037571;28;20179;-54
2021/09/01 07:52:47;;;;;;;6.00;5.50;;;;;;;23.49;45.93;99381.81;5035155;28;20214;-55
2021/09/01 07:55:14;;;;;;;6.13;5.53;;;;;;;23.50;46.02;99378.16;5037550;28;20237;-53
2021/09/01 07:57:40;;;;;;;5.90;5.37;;;;;;;23.51;45.94;99381.66;5037811;28;20205;-53
2021/09/01 08:00:09;;;;;;;5.20;4.80;;;;;;;23.50;45.84;99383.47;5036679;28;20218;-54
2021/09/01 08:02:36;;;;;;;6.13;5.43;;;;;;;23.52;45.76;99388.66;5037740;28;20260;-54
2021/09/01 08:05:04;;;;;;;5.80;5.33;;;;;;;23.50;45.89;99399.47;5040069;28;20201;-51
2021/09/01 08:07:32;;;;;;;5.87;5.37;;;;;;;23.48;45.88;99404.13;5043052;28;20186;-51
2021/09/01 08:09:59;;;;;;;6.00;5.50;;;;;;;23.47;45.79;99402.47;5042440;28;20189;-51
2021/09/01 08:12:25;;;;;;;5.87;5.30;;;;;;;23.49;45.81;99404.97;5041202;28;20206;-52
2021/09/01 08:14:52;;;;;;;6.10;5.53;;;;;;;23.46;45.98;99406.13;5041502;28;20236;-52
2021/09/01 08:17:18;;;;;;;5.77;5.27;;;;;;;23.43;45.90;99409.16;5038501;28;20380;-51
2021/09/01 08:19:46;;;;;;;6.07;5.57;;;;;;;23.40;46.07;99414.81;5037362;28;20197;-52
2021/09/01 08:22:12;;;;;;;5.90;5.30;;;;;;;23.36;46.10;99406.34;5037579;28;20217;-55
2021/09/01 08:24:40;;;;;;;5.70;5.23;;;;;;;23.35;46.17;99415.31;5037347;28;20216;-51
2021/09/01 08:27:08;;;;;;;10.50;5.27;;;;;;;23.39;46.10;99405.13;5037798;28;20220;-51
2021/09/01 08:29:36;;;;;;;8.90;5.60;;;;;;;23.40;46.07;99406.84;5039479;28;20252;-51
2021/09/01 08:32:03;;;;;;;6.53;5.93;;;;;;;23.44;46.01;99408.16;5041728;28;20190;-52
2021/09/01 08:34:29;;;;;;;6.40;5.80;;;;;;;23.46;46.05;99413.28;5041195;28;20600;-52
2021/09/01 08:36:57;;;;;;;6.27;5.50;;;;;;;23.48;45.90;99413.94;5041095;28;20186;-51
2021/09/01 08:39:23;;;;;;;6.17;5.67;;;;;;;23.52;45.84;99415.28;5040316;28;20198;-53
2021/09/01 08:41:51;;;;;;;6.13;5.63;;;;;;;23.57;45.81;99412.13;5040333;28;20206;-53
2021/09/01 08:44:18;;;;;;;5.63;5.13;;;;;;;23.60;45.76;99411.78;5040350;28;20186;-52
2021/09/01 08:46:47;;;;;;;6.23;5.73;;;;;;;23.67;45.66;99408.25;5040985;28;20214;-51
2021/09/01 08:49:13;;;;;;;6.07;5.47;;;;;;;23.69;45.54;99405.38;5040054;28;20710;-53
2021/09/01 08:51:40;;;;;;;6.33;5.63;;;;;;;23.71;45.65;99403.38;5041068;28;20190;-52
2021/09/01 08:54:07;;;;;;;6.90;6.30;;;;;;;23.71;45.55;99411.38;5040719;28;20210;-51
2021/09/01 08:56:34;;;;;;;6.47;5.97;;;;;;;23.74;45.57;99411.06;5040438;28;20202;-51
2021/09/01 08:59:00;;;;;;;6.30;5.70;;;;;;;23.76;45.68;99414.38;5041250;28;20272;-52
2021/09/01 09:01:40;;;;;;;6.60;6.10;;;;;;;23.76;45.81;99417.03;5040407;28;20276;-51
2021/09/01 09:04:14;;;;;;;7.73;6.90;;;;;;;23.77;45.75;99418.69;5041003;28;20224;-51
2021/09/01 09:06:45;;;;;;;7.53;6.77;;;;;;;23.79;45.63;99419.34;5045200;28;20234;-51
2021/09/01 09:09:13;;;;;;;6.53;5.87;;;;;;;23.84;45.70;99415.34;5040283;28;20209;-51
2021/09/01 09:11:40;;;;;;;8.57;7.67;;;;;;;23.86;45.62;99424.00;5035460;28;20649;-51
2021/09/01 09:14:30;;;;;;;7.57;6.87;;;;;;;23.93;45.63;99422.31;5035091;28;20237;-51
2021/09/01 09:17:08;;;;;;;7.77;7.17;;;;;;;23.95;45.56;99413.13;5035756;28;20197;-50
2021/09/01 09:19:47;;;;;;;7.83;7.13;;;;;;;23.94;45.69;99410.63;5035169;28;20232;-52
2021/09/01 09:22:21;;;;;;;7.50;6.80;;;;;;;24.04;45.50;99413.94;5035524;28;20260;-53
2021/09/01 09:25:12;;;;;;;7.27;6.67;;;;;;;24.12;45.32;99412.25;5035167;28;20178;-51
2021/09/01 09:27:41;;;;;;;7.70;7.10;;;;;;;24.18;45.20;99409.72;5034707;28;20193;-53
2021/09/01 09:30:23;;;;;;;7.20;6.60;;;;;;;24.18;45.27;99404.38;5034878;28;20186;-51
2021/09/01 09:33:15;;;;;;;7.63;7.03;;;;;;;24.18;45.41;99403.53;5033428;28;20218;-52
2021/09/01 09:36:02;;;;;;;7.83;7.13;;;;;;;24.24;45.31;99402.84;5028948;28;20563;-53
2021/09/01 09:38:33;;;;;;;7.40;6.80;;;;;;;24.25;45.20;99401.84;5034645;28;20186;-53
2021/09/01 09:41:03;;;;;;;7.00;6.40;;;;;;;24.22;45.14;99411.03;5036098;28;20202;-52
2021/09/01 09:43:32;;;;;;;7.40;6.80;;;;;;;24.16;45.19;99405.56;5035400;28;20214;-52
2021/09/01 09:46:08;;;;;;;6.87;6.37;;;;;;;24.10;45.17;99397.25;5033830;28;20665;-51
2021/09/01 09:48:36;;;;;;;7.13;6.53;;;;;;;24.06;45.16;99400.44;5034077;28;20182;-53
2021/09/01 09:51:05;;;;;;;8.00;6.70;;;;;;;24.06;45.10;99400.44;5032699;28;20186;-52
2021/09/01 09:53:51;;;;;;;8.03;6.60;;;;;;;23.99;45.25;99399.47;5033981;28;20214;-53
2021/09/01 09:56:25;;;;;;;7.00;6.33;;;;;;;24.02;45.32;99394.63;5033719;28;20201;-52
2021/09/01 09:58:57;;;;;;;6.37;5.77;;;;;;;24.06;45.17;99400.44;5034035;28;20182;-52
2021/09/01 10:01:25;;;;;;;6.73;6.13;;;;;;;24.07;45.05;99399.44;5033714;28;20204;-53
2021/09/01 10:03:54;;;;;;;6.93;6.33;;;;;;;24.08;44.99;99399.28;5032311;28;20344;-51
2021/09/01 10:06:21;;;;;;;7.30;6.60;;;;;;;24.02;45.46;99399.94;5034639;28;20189;-53
2021/09/01 10:08:50;;;;;;;6.97;6.37;;;;;;;24.02;45.35;99394.63;5033814;28;20664;-51
2021/09/01 10:11:19;;;;;;;6.73;6.20;;;;;;;24.03;45.23;99396.28;5033001;28;20194;-51
2021/09/01 10:13:48;;;;;;;7.13;6.53;;;;;;;23.94;45.70;99391.97;5034054;28;20584;-51
2021/09/01 10:16:21;;;;;;;10.17;9.13;;;;;;;23.95;45.51;99388.31;5034994;28;20194;-53
2021/09/01 10:18:53;;;;;;;21.40;14.10;;;;;;;23.91;45.32;99393.16;5034092;28;20253;-51
2021/09/01 10:21:24;;;;;;;26.93;18.73;;;;;;;23.92;45.22;99383.34;5033719;28;20198;-51
2021/09/01 10:23:51;;;;;;;24.00;16.27;;;;;;;23.96;45.34;99389.97;5033528;28;20208;-52
2021/09/01 10:26:32;;;;;;;29.97;19.97;;;;;;;23.99;45.40;99391.47;5033565;28;20200;-51
2021/09/01 10:29:00;;;;;;;24.47;16.93;;;;;;;24.01;45.31;99387.59;5034106;28;20204;-52
2021/09/01 10:31:30;;;;;;;22.13;15.67;;;;;;;24.04;45.24;99384.59;5036032;28;20197;-54
2021/09/01 10:34:03;;;;;;;18.70;13.47;;;;;;;23.96;45.46;99390.81;5035383;28;20210;-52
2021/09/01 10:36:29;;;;;;;22.50;14.80;;;;;;;23.98;45.39;99387.94;5036550;28;20217;-55
2021/09/01 10:39:25;;;;;;;16.80;11.93;;;;;;;23.99;45.33;99394.13;5036741;28;20218;-54
2021/09/01 10:41:51;;;;;;;20.70;14.30;;;;;;;23.95;45.41;99389.13;5040040;28;20218;-55
2021/09/01 11:21:38;;;;;;;22.07;9.63;;;;;;;23.63;46.46;99366.13;5176684;27;20508;-54
2021/09/01 11:24:10;;;;;;;27.27;10.20;;;;;;;23.56;46.74;99365.13;5162273;27;20180;-55
2021/09/01 11:26:37;;;;;;;24.20;9.73;;;;;;;23.63;46.50;99366.13;5176717;27;20197;-53
2021/09/01 11:29:05;;;;;;;24.90;10.20;;;;;;;23.65;46.42;99359.63;5177085;27;20323;-62
2021/09/01 11:31:32;;;;;;;22.17;9.70;;;;;;;23.66;46.57;99357.78;5156567;27;20194;-55
2021/09/01 11:34:00;;;;;;;23.20;9.13;;;;;;;23.63;46.46;99356.28;5177235;27;20185;-54
2021/09/01 11:36:30;;;;;;;19.03;9.27;;;;;;;23.60;46.44;99353.97;5176956;27;20177;-55
2021/09/01 11:38:58;;;;;;;17.90;9.90;;;;;;;23.58;46.38;99347.16;5176882;27;20213;-53
2021/09/01 11:41:26;;;;;;;16.93;8.80;;;;;;;23.55;46.43;99353.66;5177278;27;20190;-55
2021/09/01 11:44:02;;;;;;;20.07;9.10;;;;;;;23.50;46.66;99351.50;5176687;27;20593;-55
2021/09/01 11:46:34;;;;;;;17.53;9.30;;;;;;;23.47;46.55;99349.19;5176703;27;20241;-54
2021/09/01 11:49:14;;;;;;;23.43;9.23;;;;;;;23.49;46.43;99349.84;5176818;27;20234;-54
2021/09/01 11:51:43;;;;;;;18.10;7.97;;;;;;;23.51;46.43;99352.34;5176823;27;20173;-55
2021/09/01 11:54:11;;;;;;;19.20;8.63;;;;;;;23.49;46.36;99352.50;5176368;27;20185;-54
2021/09/01 11:56:49;;;;;;;22.63;9.20;;;;;;;23.45;46.46;99353.88;5158223;27;20197;-55
2021/09/01 11:59:16;;;;;;;20.63;8.63;;;;;;;23.48;46.34;99350.00;5164170;27;20202;-55
2021/09/01 12:01:47;;;;;;;16.40;8.23;;;;;;;23.48;46.34;99345.53;5162747;27;20234;-53
2021/09/01 12:04:19;;;;;;;17.80;8.80;;;;;;;23.48;46.28;99344.69;5162510;27;20194;-55
2021/09/01 12:07:05;;;;;;;13.20;8.17;;;;;;;23.45;46.40;99340.56;5162131;27;20246;-53
2021/09/01 12:09:34;;;;;;;17.23;8.63;;;;;;;23.48;46.25;99340.19;5162053;27;20548;-53
2021/09/01 12:12:03;;;;;;;16.07;7.93;;;;;;;23.48;46.31;99340.19;5162106;27;20246;-55
2021/09/01 12:14:32;;;;;;;19.73;8.47;;;;;;;23.48;46.22;99342.88;5162149;27;20186;-53
2021/09/01 12:17:23;;;;;;;14.40;8.63;;;;;;;23.54;46.06;99339.50;5162675;27;20192;-55